sensor_id;sensor_type;location;lat;lon;timestamp;P1;durP1;ratioP1;P2;durP2;ratioP2
20639;SDS011;10479;53.524;9.846;2022-08-19T00:00:35;11.30;;;6.28;;
20639;SDS011;10479;53.524;9.846;2022-08-19T00:03:01;19.38;;;7.35;;
20639;SDS011;10479;53.524;9.846;2022-08-19T00:05:28;12.20;;;6.30;;
20639;SDS011;10479;53.524;9.846;2022-08-19T00:07:53;10.95;;;6.60;;
20639;SDS011;10479;53.524;9.846;2022-08-19T00:10:19;11.77;;;6.55;;
20639;SDS011;10479;53.524;9.846;2022-08-19T00:12:45;11.40;;;7.60;;
20639;SDS011;10479;53.524;9.846;2022-08-19T00:15:12;10.10;;;6.88;;
20639;SDS011;10479;53.524;9.846;2022-08-19T00:17:40;12.43;;;6.22;;
20639;SDS011;10479;53.524;9.846;2022-08-19T00:20:08;13.65;;;7.18;;
20639;SDS011;10479;53.524;9.846;2022-08-19T00:22:36;9.27;;;6.28;;
20639;SDS011;10479;53.524;9.846;2022-08-19T00:25:02;12.05;;;6.68;;
20639;SDS011;10479;53.524;9.846;2022-08-19T00:27:28;13.95;;;6.95;;
20639;SDS011;10479;53.524;9.846;2022-08-19T00:29:54;15.15;;;6.50;;
20639;SDS011;10479;53.524;9.846;2022-08-19T00:32:19;10.38;;;6.72;;
20639;SDS011;10479;53.524;9.846;2022-08-19T00:34:45;10.88;;;6.82;;
20639;SDS011;10479;53.524;9.846;2022-08-19T00:37:11;12.63;;;6.57;;
20639;SDS011;10479;53.524;9.846;2022-08-19T00:39:36;12.05;;;6.68;;
20639;SDS011;10479;53.524;9.846;2022-08-19T00:42:02;10.52;;;6.75;;
20639;SDS011;10479;53.524;9.846;2022-08-19T00:44:28;13.35;;;7.63;;
20639;SDS011;10479;53.524;9.846;2022-08-19T00:46:57;13.18;;;7.85;;
20639;SDS011;10479;53.524;9.846;2022-08-19T00:52:21;14.05;;;7.82;;
20639;SDS011;10479;53.524;9.846;2022-08-19T00:54:49;14.63;;;8.23;;
20639;SDS011;10479;53.524;9.846;2022-08-19T00:57:17;16.58;;;8.30;;
20639;SDS011;10479;53.524;9.846;2022-08-19T00:59:48;14.93;;;8.60;;
20639;SDS011;10479;53.524;9.846;2022-08-19T01:02:19;13.10;;;7.80;;
20639;SDS011;10479;53.524;9.846;2022-08-19T01:04:45;13.23;;;8.45;;
20639;SDS011;10479;53.524;9.846;2022-08-19T01:07:10;15.68;;;8.13;;
20639;SDS011;10479;53.524;9.846;2022-08-19T01:09:37;16.92;;;8.60;;
20639;SDS011;10479;53.524;9.846;2022-08-19T01:12:02;15.15;;;8.25;;
20639;SDS011;10479;53.524;9.846;2022-08-19T01:14:28;14.65;;;7.97;;
20639;SDS011;10479;53.524;9.846;2022-08-19T01:16:54;16.60;;;9.30;;
20639;SDS011;10479;53.524;9.846;2022-08-19T01:21:51;14.82;;;8.23;;
20639;SDS011;10479;53.524;9.846;2022-08-19T01:24:21;15.85;;;9.00;;
20639;SDS011;10479;53.524;9.846;2022-08-19T01:26:46;16.33;;;8.80;;
20639;SDS011;10479;53.524;9.846;2022-08-19T01:29:12;14.93;;;9.55;;
20639;SDS011;10479;53.524;9.846;2022-08-19T01:31:39;16.30;;;8.07;;
20639;SDS011;10479;53.524;9.846;2022-08-19T01:34:05;17.98;;;7.90;;
20639;SDS011;10479;53.524;9.846;2022-08-19T01:36:32;13.40;;;8.20;;
20639;SDS011;10479;53.524;9.846;2022-08-19T01:39:10;17.48;;;8.40;;
20639;SDS011;10479;53.524;9.846;2022-08-19T01:41:37;16.20;;;7.82;;
20639;SDS011;10479;53.524;9.846;2022-08-19T01:44:03;14.60;;;8.25;;
20639;SDS011;10479;53.524;9.846;2022-08-19T01:46:31;14.40;;;7.88;;
20639;SDS011;10479;53.524;9.846;2022-08-19T01:48:57;18.10;;;8.18;;
20639;SDS011;10479;53.524;9.846;2022-08-19T01:51:23;16.23;;;7.65;;
20639;SDS011;10479;53.524;9.846;2022-08-19T01:53:50;16.23;;;8.15;;
20639;SDS011;10479;53.524;9.846;2022-08-19T01:56:19;13.95;;;8.85;;
20639;SDS011;10479;53.524;9.846;2022-08-19T01:59:00;16.00;;;8.63;;
20639;SDS011;10479;53.524;9.846;2022-08-19T02:01:27;17.42;;;8.48;;
20639;SDS011;10479;53.524;9.846;2022-08-19T02:04:00;17.23;;;8.45;;
20639;SDS011;10479;53.524;9.846;2022-08-19T02:06:26;16.60;;;8.75;;
20639;SDS011;10479;53.524;9.846;2022-08-19T02:08:52;12.95;;;8.10;;
20639;SDS011;10479;53.524;9.846;2022-08-19T02:11:19;19.08;;;8.45;;
20639;SDS011;10479;53.524;9.846;2022-08-19T02:13:49;18.00;;;9.15;;
20639;SDS011;10479;53.524;9.846;2022-08-19T02:16:17;16.20;;;9.40;;
20639;SDS011;10479;53.524;9.846;2022-08-19T02:18:43;20.52;;;10.25;;
20639;SDS011;10479;53.524;9.846;2022-08-19T02:21:10;98.43;;;34.83;;
20639;SDS011;10479;53.524;9.846;2022-08-19T02:23:36;70.68;;;30.05;;
20639;SDS011;10479;53.524;9.846;2022-08-19T02:26:03;70.40;;;30.50;;
20639;SDS011;10479;53.524;9.846;2022-08-19T02:28:38;86.57;;;38.40;;
20639;SDS011;10479;53.524;9.846;2022-08-19T02:31:11;78.35;;;34.28;;
20639;SDS011;10479;53.524;9.846;2022-08-19T02:33:42;74.40;;;31.67;;
20639;SDS011;10479;53.524;9.846;2022-08-19T02:36:09;77.05;;;34.72;;
20639;SDS011;10479;53.524;9.846;2022-08-19T02:38:35;74.47;;;32.88;;
20639;SDS011;10479;53.524;9.846;2022-08-19T02:41:06;70.30;;;30.00;;
20639;SDS011;10479;53.524;9.846;2022-08-19T02:43:37;65.10;;;29.98;;
20639;SDS011;10479;53.524;9.846;2022-08-19T02:46:17;59.22;;;27.55;;
20639;SDS011;10479;53.524;9.846;2022-08-19T02:48:50;63.28;;;28.52;;
20639;SDS011;10479;53.524;9.846;2022-08-19T02:51:18;57.70;;;24.98;;
20639;SDS011;10479;53.524;9.846;2022-08-19T02:53:49;49.63;;;25.30;;
20639;SDS011;10479;53.524;9.846;2022-08-19T02:56:16;56.28;;;26.67;;
20639;SDS011;10479;53.524;9.846;2022-08-19T02:58:50;65.38;;;28.92;;
20639;SDS011;10479;53.524;9.846;2022-08-19T03:01:22;61.78;;;29.75;;
20639;SDS011;10479;53.524;9.846;2022-08-19T03:03:58;66.63;;;30.63;;
20639;SDS011;10479;53.524;9.846;2022-08-19T03:06:25;65.45;;;31.10;;
20639;SDS011;10479;53.524;9.846;2022-08-19T03:08:52;65.18;;;30.10;;
20639;SDS011;10479;53.524;9.846;2022-08-19T03:11:20;69.13;;;30.05;;
20639;SDS011;10479;53.524;9.846;2022-08-19T03:13:50;61.10;;;30.70;;
20639;SDS011;10479;53.524;9.846;2022-08-19T03:16:16;67.88;;;31.63;;
20639;SDS011;10479;53.524;9.846;2022-08-19T03:18:43;63.85;;;29.00;;
20639;SDS011;10479;53.524;9.846;2022-08-19T03:21:09;62.50;;;28.25;;
20639;SDS011;10479;53.524;9.846;2022-08-19T03:23:35;53.50;;;25.70;;
20639;SDS011;10479;53.524;9.846;2022-08-19T03:26:04;36.30;;;19.58;;
20639;SDS011;10479;53.524;9.846;2022-08-19T03:28:31;29.65;;;16.48;;
20639;SDS011;10479;53.524;9.846;2022-08-19T03:31:01;33.10;;;15.93;;
20639;SDS011;10479;53.524;9.846;2022-08-19T03:33:27;29.23;;;14.25;;
20639;SDS011;10479;53.524;9.846;2022-08-19T03:38:39;27.77;;;13.73;;
20639;SDS011;10479;53.524;9.846;2022-08-19T03:41:07;27.73;;;13.85;;
20639;SDS011;10479;53.524;9.846;2022-08-19T03:43:39;26.30;;;14.18;;
20639;SDS011;10479;53.524;9.846;2022-08-19T03:46:09;33.50;;;14.93;;
20639;SDS011;10479;53.524;9.846;2022-08-19T03:48:37;26.55;;;14.63;;
20639;SDS011;10479;53.524;9.846;2022-08-19T03:51:03;35.75;;;16.02;;
20639;SDS011;10479;53.524;9.846;2022-08-19T03:53:29;30.40;;;14.38;;
20639;SDS011;10479;53.524;9.846;2022-08-19T03:56:08;35.10;;;13.45;;
20639;SDS011;10479;53.524;9.846;2022-08-19T03:58:34;29.35;;;13.95;;
20639;SDS011;10479;53.524;9.846;2022-08-19T04:00:59;39.20;;;16.60;;
20639;SDS011;10479;53.524;9.846;2022-08-19T04:03:25;37.38;;;16.80;;
20639;SDS011;10479;53.524;9.846;2022-08-19T04:05:52;40.92;;;15.60;;
20639;SDS011;10479;53.524;9.846;2022-08-19T04:08:18;31.95;;;15.43;;
20639;SDS011;10479;53.524;9.846;2022-08-19T04:10:45;31.02;;;14.35;;
20639;SDS011;10479;53.524;9.846;2022-08-19T04:13:17;36.22;;;15.45;;
20639;SDS011;10479;53.524;9.846;2022-08-19T04:15:43;37.53;;;16.42;;
20639;SDS011;10479;53.524;9.846;2022-08-19T04:18:12;27.35;;;13.77;;
20639;SDS011;10479;53.524;9.846;2022-08-19T04:20:39;34.03;;;14.10;;
20639;SDS011;10479;53.524;9.846;2022-08-19T04:23:18;33.92;;;15.07;;
20639;SDS011;10479;53.524;9.846;2022-08-19T04:25:44;31.17;;;15.95;;
20639;SDS011;10479;53.524;9.846;2022-08-19T04:28:10;36.20;;;14.95;;
20639;SDS011;10479;53.524;9.846;2022-08-19T04:30:41;43.53;;;16.60;;
20639;SDS011;10479;53.524;9.846;2022-08-19T04:33:12;39.40;;;15.68;;
20639;SDS011;10479;53.524;9.846;2022-08-19T04:35:41;34.55;;;15.15;;
20639;SDS011;10479;53.524;9.846;2022-08-19T04:38:09;35.85;;;15.95;;
20639;SDS011;10479;53.524;9.846;2022-08-19T04:40:39;44.75;;;18.65;;
20639;SDS011;10479;53.524;9.846;2022-08-19T04:43:24;42.53;;;18.75;;
20639;SDS011;10479;53.524;9.846;2022-08-19T04:45:50;53.83;;;20.15;;
20639;SDS011;10479;53.524;9.846;2022-08-19T04:48:16;53.65;;;20.90;;
20639;SDS011;10479;53.524;9.846;2022-08-19T04:50:48;50.63;;;21.10;;
20639;SDS011;10479;53.524;9.846;2022-08-19T04:53:13;52.25;;;21.98;;
20639;SDS011;10479;53.524;9.846;2022-08-19T04:55:40;52.00;;;21.90;;
20639;SDS011;10479;53.524;9.846;2022-08-19T04:58:06;46.05;;;20.77;;
20639;SDS011;10479;53.524;9.846;2022-08-19T05:00:31;51.35;;;21.27;;
20639;SDS011;10479;53.524;9.846;2022-08-19T05:02:57;52.00;;;22.20;;
20639;SDS011;10479;53.524;9.846;2022-08-19T05:05:22;50.47;;;21.70;;
20639;SDS011;10479;53.524;9.846;2022-08-19T05:07:48;48.63;;;22.52;;
20639;SDS011;10479;53.524;9.846;2022-08-19T05:10:13;54.08;;;21.30;;
20639;SDS011;10479;53.524;9.846;2022-08-19T05:12:39;51.60;;;22.42;;
20639;SDS011;10479;53.524;9.846;2022-08-19T05:15:05;45.28;;;20.15;;
20639;SDS011;10479;53.524;9.846;2022-08-19T05:17:31;52.45;;;21.05;;
20639;SDS011;10479;53.524;9.846;2022-08-19T05:19:57;50.17;;;20.30;;
20639;SDS011;10479;53.524;9.846;2022-08-19T05:22:43;48.20;;;20.95;;
20639;SDS011;10479;53.524;9.846;2022-08-19T05:25:11;45.83;;;21.40;;
20639;SDS011;10479;53.524;9.846;2022-08-19T05:27:39;48.58;;;22.08;;
20639;SDS011;10479;53.524;9.846;2022-08-19T05:30:05;45.53;;;22.73;;
20639;SDS011;10479;53.524;9.846;2022-08-19T05:32:32;49.17;;;22.27;;
20639;SDS011;10479;53.524;9.846;2022-08-19T05:34:57;48.67;;;20.92;;
20639;SDS011;10479;53.524;9.846;2022-08-19T05:37:23;45.53;;;23.15;;
20639;SDS011;10479;53.524;9.846;2022-08-19T05:39:51;46.47;;;21.48;;
20639;SDS011;10479;53.524;9.846;2022-08-19T05:42:17;44.03;;;20.90;;
20639;SDS011;10479;53.524;9.846;2022-08-19T05:44:44;38.22;;;20.40;;
20639;SDS011;10479;53.524;9.846;2022-08-19T05:47:10;43.63;;;20.42;;
20639;SDS011;10479;53.524;9.846;2022-08-19T05:49:37;38.30;;;19.65;;
20639;SDS011;10479;53.524;9.846;2022-08-19T05:52:04;39.22;;;21.05;;
20639;SDS011;10479;53.524;9.846;2022-08-19T05:54:30;51.65;;;21.10;;
20639;SDS011;10479;53.524;9.846;2022-08-19T05:56:56;37.88;;;18.65;;
20639;SDS011;10479;53.524;9.846;2022-08-19T05:59:22;46.65;;;20.35;;
20639;SDS011;10479;53.524;9.846;2022-08-19T06:01:48;38.55;;;19.60;;
20639;SDS011;10479;53.524;9.846;2022-08-19T06:04:16;45.88;;;19.45;;
20639;SDS011;10479;53.524;9.846;2022-08-19T06:06:44;38.58;;;17.45;;
20639;SDS011;10479;53.524;9.846;2022-08-19T06:09:11;35.78;;;16.45;;
20639;SDS011;10479;53.524;9.846;2022-08-19T06:11:38;28.15;;;15.13;;
20639;SDS011;10479;53.524;9.846;2022-08-19T06:14:08;34.65;;;15.95;;
20639;SDS011;10479;53.524;9.846;2022-08-19T06:16:35;34.03;;;16.52;;
20639;SDS011;10479;53.524;9.846;2022-08-19T06:19:04;42.55;;;17.25;;
20639;SDS011;10479;53.524;9.846;2022-08-19T06:21:32;30.40;;;14.57;;
20639;SDS011;10479;53.524;9.846;2022-08-19T06:23:59;34.00;;;14.98;;
20639;SDS011;10479;53.524;9.846;2022-08-19T06:26:25;40.85;;;14.60;;
20639;SDS011;10479;53.524;9.846;2022-08-19T06:28:51;34.92;;;15.18;;
20639;SDS011;10479;53.524;9.846;2022-08-19T06:31:18;30.08;;;14.45;;
20639;SDS011;10479;53.524;9.846;2022-08-19T06:33:48;30.17;;;14.48;;
20639;SDS011;10479;53.524;9.846;2022-08-19T06:36:18;33.22;;;12.88;;
20639;SDS011;10479;53.524;9.846;2022-08-19T06:38:47;25.73;;;13.85;;
20639;SDS011;10479;53.524;9.846;2022-08-19T06:41:12;29.23;;;12.52;;
20639;SDS011;10479;53.524;9.846;2022-08-19T06:43:38;25.63;;;13.43;;
20639;SDS011;10479;53.524;9.846;2022-08-19T06:46:04;23.60;;;13.40;;
20639;SDS011;10479;53.524;9.846;2022-08-19T06:48:36;30.98;;;13.93;;
20639;SDS011;10479;53.524;9.846;2022-08-19T06:51:01;27.42;;;12.48;;
20639;SDS011;10479;53.524;9.846;2022-08-19T06:53:28;24.95;;;13.27;;
20639;SDS011;10479;53.524;9.846;2022-08-19T06:55:54;27.55;;;13.43;;
20639;SDS011;10479;53.524;9.846;2022-08-19T06:58:25;25.42;;;14.40;;
20639;SDS011;10479;53.524;9.846;2022-08-19T07:00:50;27.65;;;13.20;;
20639;SDS011;10479;53.524;9.846;2022-08-19T07:03:16;30.05;;;13.38;;
20639;SDS011;10479;53.524;9.846;2022-08-19T07:05:42;27.10;;;13.57;;
20639;SDS011;10479;53.524;9.846;2022-08-19T07:08:08;24.63;;;11.95;;
20639;SDS011;10479;53.524;9.846;2022-08-19T07:10:34;23.83;;;12.80;;
20639;SDS011;10479;53.524;9.846;2022-08-19T07:13:01;25.95;;;12.73;;
20639;SDS011;10479;53.524;9.846;2022-08-19T07:15:28;28.13;;;12.05;;
20639;SDS011;10479;53.524;9.846;2022-08-19T07:17:54;23.75;;;12.77;;
20639;SDS011;10479;53.524;9.846;2022-08-19T07:20:19;28.80;;;11.25;;
20639;SDS011;10479;53.524;9.846;2022-08-19T07:22:45;27.15;;;11.15;;
20639;SDS011;10479;53.524;9.846;2022-08-19T07:25:10;21.25;;;10.32;;
20639;SDS011;10479;53.524;9.846;2022-08-19T07:27:38;18.05;;;9.77;;
20639;SDS011;10479;53.524;9.846;2022-08-19T07:30:03;20.92;;;10.50;;
20639;SDS011;10479;53.524;9.846;2022-08-19T07:32:32;20.20;;;10.43;;
20639;SDS011;10479;53.524;9.846;2022-08-19T07:34:57;19.38;;;10.40;;
20639;SDS011;10479;53.524;9.846;2022-08-19T07:37:25;26.48;;;11.48;;
20639;SDS011;10479;53.524;9.846;2022-08-19T07:39:51;19.02;;;9.82;;
20639;SDS011;10479;53.524;9.846;2022-08-19T07:42:17;20.80;;;10.80;;
20639;SDS011;10479;53.524;9.846;2022-08-19T07:44:45;23.98;;;10.68;;
20639;SDS011;10479;53.524;9.846;2022-08-19T07:47:11;25.40;;;11.98;;
20639;SDS011;10479;53.524;9.846;2022-08-19T07:49:38;21.67;;;11.63;;
20639;SDS011;10479;53.524;9.846;2022-08-19T07:52:06;23.73;;;12.25;;
20639;SDS011;10479;53.524;9.846;2022-08-19T07:54:33;26.65;;;12.95;;
20639;SDS011;10479;53.524;9.846;2022-08-19T07:57:00;19.73;;;11.32;;
20639;SDS011;10479;53.524;9.846;2022-08-19T07:59:26;21.67;;;11.73;;
20639;SDS011;10479;53.524;9.846;2022-08-19T08:01:53;21.85;;;13.15;;
20639;SDS011;10479;53.524;9.846;2022-08-19T08:04:19;23.65;;;13.40;;
20639;SDS011;10479;53.524;9.846;2022-08-19T08:07:03;26.65;;;13.48;;
20639;SDS011;10479;53.524;9.846;2022-08-19T08:09:48;17.90;;;9.40;;
20639;SDS011;10479;53.524;9.846;2022-08-19T08:12:18;21.70;;;9.05;;
20639;SDS011;10479;53.524;9.846;2022-08-19T08:14:55;18.75;;;10.30;;
20639;SDS011;10479;53.524;9.846;2022-08-19T08:17:23;21.13;;;10.18;;
20639;SDS011;10479;53.524;9.846;2022-08-19T08:19:50;18.30;;;10.77;;
20639;SDS011;10479;53.524;9.846;2022-08-19T08:22:17;18.13;;;9.35;;
20639;SDS011;10479;53.524;9.846;2022-08-19T08:25:22;20.92;;;10.45;;
20639;SDS011;10479;53.524;9.846;2022-08-19T08:27:49;17.92;;;9.60;;
20639;SDS011;10479;53.524;9.846;2022-08-19T08:30:18;16.80;;;9.88;;
20639;SDS011;10479;53.524;9.846;2022-08-19T08:32:45;18.27;;;10.40;;
20639;SDS011;10479;53.524;9.846;2022-08-19T08:35:12;21.40;;;10.18;;
20639;SDS011;10479;53.524;9.846;2022-08-19T08:37:41;19.70;;;10.63;;
20639;SDS011;10479;53.524;9.846;2022-08-19T08:43:38;19.08;;;10.55;;
20639;SDS011;10479;53.524;9.846;2022-08-19T08:46:09;22.70;;;11.13;;
20639;SDS011;10479;53.524;9.846;2022-08-19T08:51:41;27.05;;;11.27;;
20639;SDS011;10479;53.524;9.846;2022-08-19T08:54:10;17.83;;;10.95;;
20639;SDS011;10479;53.524;9.846;2022-08-19T08:56:38;18.92;;;10.68;;
20639;SDS011;10479;53.524;9.846;2022-08-19T08:59:06;23.40;;;10.68;;
20639;SDS011;10479;53.524;9.846;2022-08-19T09:01:35;22.60;;;10.82;;
20639;SDS011;10479;53.524;9.846;2022-08-19T09:04:05;19.60;;;10.85;;
20639;SDS011;10479;53.524;9.846;2022-08-19T09:07:14;24.33;;;11.20;;
20639;SDS011;10479;53.524;9.846;2022-08-19T09:09:32;22.88;;;11.02;;
20639;SDS011;10479;53.524;9.846;2022-08-19T09:15:04;27.27;;;14.18;;
20639;SDS011;10479;53.524;9.846;2022-08-19T09:17:33;24.98;;;14.10;;
20639;SDS011;10479;53.524;9.846;2022-08-19T09:22:48;27.40;;;14.48;;
20639;SDS011;10479;53.524;9.846;2022-08-19T09:25:24;27.20;;;14.73;;
20639;SDS011;10479;53.524;9.846;2022-08-19T09:27:51;26.73;;;14.63;;
20639;SDS011;10479;53.524;9.846;2022-08-19T09:30:19;28.77;;;13.75;;
20639;SDS011;10479;53.524;9.846;2022-08-19T09:32:47;31.60;;;12.93;;
20639;SDS011;10479;53.524;9.846;2022-08-19T09:35:15;22.80;;;13.82;;
20639;SDS011;10479;53.524;9.846;2022-08-19T09:37:41;25.05;;;12.75;;
20639;SDS011;10479;53.524;9.846;2022-08-19T09:40:08;26.48;;;13.00;;
20639;SDS011;10479;53.524;9.846;2022-08-19T09:42:34;25.40;;;13.38;;
20639;SDS011;10479;53.524;9.846;2022-08-19T09:45:00;23.63;;;12.77;;
20639;SDS011;10479;53.524;9.846;2022-08-19T09:47:26;25.98;;;13.25;;
20639;SDS011;10479;53.524;9.846;2022-08-19T09:49:52;25.20;;;12.55;;
20639;SDS011;10479;53.524;9.846;2022-08-19T09:52:17;22.25;;;14.10;;
20639;SDS011;10479;53.524;9.846;2022-08-19T09:54:43;26.27;;;14.25;;
20639;SDS011;10479;53.524;9.846;2022-08-19T09:57:08;24.63;;;13.63;;
20639;SDS011;10479;53.524;9.846;2022-08-19T09:59:34;31.42;;;14.98;;
20639;SDS011;10479;53.524;9.846;2022-08-19T10:01:59;23.15;;;14.15;;
20639;SDS011;10479;53.524;9.846;2022-08-19T10:04:25;27.23;;;14.75;;
20639;SDS011;10479;53.524;9.846;2022-08-19T10:07:10;31.67;;;15.85;;
20639;SDS011;10479;53.524;9.846;2022-08-19T10:09:36;33.38;;;18.13;;
20639;SDS011;10479;53.524;9.846;2022-08-19T10:12:03;29.67;;;16.83;;
20639;SDS011;10479;53.524;9.846;2022-08-19T10:14:29;33.13;;;17.20;;
20639;SDS011;10479;53.524;9.846;2022-08-19T10:16:55;31.10;;;17.70;;
20639;SDS011;10479;53.524;9.846;2022-08-19T10:19:21;48.58;;;17.30;;
20639;SDS011;10479;53.524;9.846;2022-08-19T10:21:47;30.58;;;16.67;;
20639;SDS011;10479;53.524;9.846;2022-08-19T10:24:12;30.30;;;16.80;;
20639;SDS011;10479;53.524;9.846;2022-08-19T10:26:38;33.38;;;15.98;;
20639;SDS011;10479;53.524;9.846;2022-08-19T10:29:06;26.05;;;15.57;;
20639;SDS011;10479;53.524;9.846;2022-08-19T10:31:32;33.75;;;16.73;;
20639;SDS011;10479;53.524;9.846;2022-08-19T10:33:59;30.67;;;16.90;;
20639;SDS011;10479;53.524;9.846;2022-08-19T10:36:29;33.70;;;17.70;;
20639;SDS011;10479;53.524;9.846;2022-08-19T10:38:57;27.75;;;16.67;;
20639;SDS011;10479;53.524;9.846;2022-08-19T10:41:27;26.67;;;15.77;;
20639;SDS011;10479;53.524;9.846;2022-08-19T10:43:55;31.40;;;16.40;;
20639;SDS011;10479;53.524;9.846;2022-08-19T10:46:23;31.90;;;18.20;;
20639;SDS011;10479;53.524;9.846;2022-08-19T10:48:50;31.70;;;16.90;;
20639;SDS011;10479;53.524;9.846;2022-08-19T10:51:16;36.13;;;18.50;;
20639;SDS011;10479;53.524;9.846;2022-08-19T10:54:00;35.08;;;17.88;;
20639;SDS011;10479;53.524;9.846;2022-08-19T10:56:27;30.02;;;17.65;;
20639;SDS011;10479;53.524;9.846;2022-08-19T10:59:12;34.38;;;18.52;;
20639;SDS011;10479;53.524;9.846;2022-08-19T11:01:39;31.58;;;17.20;;
20639;SDS011;10479;53.524;9.846;2022-08-19T11:04:06;26.33;;;16.30;;
20639;SDS011;10479;53.524;9.846;2022-08-19T11:06:35;29.38;;;17.70;;
20639;SDS011;10479;53.524;9.846;2022-08-19T11:09:02;27.73;;;16.58;;
20639;SDS011;10479;53.524;9.846;2022-08-19T11:11:27;29.55;;;15.75;;
20639;SDS011;10479;53.524;9.846;2022-08-19T11:13:53;28.75;;;17.15;;
20639;SDS011;10479;53.524;9.846;2022-08-19T11:16:19;30.85;;;17.33;;
20639;SDS011;10479;53.524;9.846;2022-08-19T11:18:52;27.77;;;15.70;;
20639;SDS011;10479;53.524;9.846;2022-08-19T11:21:23;28.73;;;16.38;;
20639;SDS011;10479;53.524;9.846;2022-08-19T11:24:00;27.40;;;15.40;;
20639;SDS011;10479;53.524;9.846;2022-08-19T11:26:29;28.95;;;16.35;;
20639;SDS011;10479;53.524;9.846;2022-08-19T11:28:56;30.38;;;15.73;;
20639;SDS011;10479;53.524;9.846;2022-08-19T11:31:23;30.08;;;17.02;;
20639;SDS011;10479;53.524;9.846;2022-08-19T11:33:51;26.13;;;15.43;;
20639;SDS011;10479;53.524;9.846;2022-08-19T11:36:18;29.17;;;15.57;;
20639;SDS011;10479;53.524;9.846;2022-08-19T11:38:46;27.38;;;15.70;;
20639;SDS011;10479;53.524;9.846;2022-08-19T11:41:15;28.35;;;16.35;;
20639;SDS011;10479;53.524;9.846;2022-08-19T11:43:42;34.50;;;17.05;;
20639;SDS011;10479;53.524;9.846;2022-08-19T11:46:08;32.55;;;18.98;;
20639;SDS011;10479;53.524;9.846;2022-08-19T11:48:40;32.93;;;17.97;;
20639;SDS011;10479;53.524;9.846;2022-08-19T11:51:07;31.83;;;19.38;;
20639;SDS011;10479;53.524;9.846;2022-08-19T11:53:37;31.73;;;18.55;;
20639;SDS011;10479;53.524;9.846;2022-08-19T11:56:03;29.65;;;17.63;;
20639;SDS011;10479;53.524;9.846;2022-08-19T11:58:30;29.25;;;17.13;;
20639;SDS011;10479;53.524;9.846;2022-08-19T12:00:55;25.40;;;15.18;;
20639;SDS011;10479;53.524;9.846;2022-08-19T12:03:21;24.23;;;16.38;;
20639;SDS011;10479;53.524;9.846;2022-08-19T12:05:47;25.08;;;14.68;;
20639;SDS011;10479;53.524;9.846;2022-08-19T12:08:13;21.40;;;13.48;;
20639;SDS011;10479;53.524;9.846;2022-08-19T12:10:39;21.10;;;13.88;;
20639;SDS011;10479;53.524;9.846;2022-08-19T12:13:07;25.90;;;15.68;;
20639;SDS011;10479;53.524;9.846;2022-08-19T12:15:37;22.00;;;13.57;;
20639;SDS011;10479;53.524;9.846;2022-08-19T12:18:05;19.60;;;13.63;;
20639;SDS011;10479;53.524;9.846;2022-08-19T12:20:32;18.20;;;12.50;;
20639;SDS011;10479;53.524;9.846;2022-08-19T12:23:00;16.48;;;12.00;;
20639;SDS011;10479;53.524;9.846;2022-08-19T12:25:25;18.95;;;12.65;;
20639;SDS011;10479;53.524;9.846;2022-08-19T12:27:51;19.67;;;13.20;;
20639;SDS011;10479;53.524;9.846;2022-08-19T12:30:16;22.83;;;14.27;;
20639;SDS011;10479;53.524;9.846;2022-08-19T12:32:42;24.73;;;15.15;;
20639;SDS011;10479;53.524;9.846;2022-08-19T12:35:07;20.67;;;13.57;;
20639;SDS011;10479;53.524;9.846;2022-08-19T12:37:35;22.45;;;14.93;;
20639;SDS011;10479;53.524;9.846;2022-08-19T12:40:00;22.23;;;15.32;;
20639;SDS011;10479;53.524;9.846;2022-08-19T12:42:27;20.98;;;14.82;;
20639;SDS011;10479;53.524;9.846;2022-08-19T12:44:52;21.77;;;15.48;;
20639;SDS011;10479;53.524;9.846;2022-08-19T12:47:18;24.95;;;16.50;;
20639;SDS011;10479;53.524;9.846;2022-08-19T12:49:43;22.30;;;15.50;;
20639;SDS011;10479;53.524;9.846;2022-08-19T12:52:10;19.60;;;14.15;;
20639;SDS011;10479;53.524;9.846;2022-08-19T12:54:36;25.25;;;14.60;;
20639;SDS011;10479;53.524;9.846;2022-08-19T12:57:09;22.35;;;14.13;;
20639;SDS011;10479;53.524;9.846;2022-08-19T12:59:43;24.02;;;15.15;;
20639;SDS011;10479;53.524;9.846;2022-08-19T13:02:09;21.98;;;14.73;;
20639;SDS011;10479;53.524;9.846;2022-08-19T13:04:35;21.05;;;14.90;;
20639;SDS011;10479;53.524;9.846;2022-08-19T13:07:03;19.30;;;13.68;;
20639;SDS011;10479;53.524;9.846;2022-08-19T13:09:28;19.33;;;12.95;;
20639;SDS011;10479;53.524;9.846;2022-08-19T13:11:54;20.85;;;13.90;;
20639;SDS011;10479;53.524;9.846;2022-08-19T13:14:19;17.60;;;13.20;;
20639;SDS011;10479;53.524;9.846;2022-08-19T13:32:08;15.80;;;11.80;;
20639;SDS011;10479;53.524;9.846;2022-08-19T13:34:52;18.35;;;12.52;;
20639;SDS011;10479;53.524;9.846;2022-08-19T13:37:18;19.08;;;12.65;;
20639;SDS011;10479;53.524;9.846;2022-08-19T13:40:03;19.35;;;12.13;;
20639;SDS011;10479;53.524;9.846;2022-08-19T13:42:30;17.10;;;12.30;;
20639;SDS011;10479;53.524;9.846;2022-08-19T13:44:56;21.08;;;13.45;;
20639;SDS011;10479;53.524;9.846;2022-08-19T13:47:23;22.17;;;13.20;;
20639;SDS011;10479;53.524;9.846;2022-08-19T13:49:49;17.25;;;12.05;;
20639;SDS011;10479;53.524;9.846;2022-08-19T13:52:15;23.67;;;14.68;;
20639;SDS011;10479;53.524;9.846;2022-08-19T13:54:40;20.75;;;14.15;;
20639;SDS011;10479;53.524;9.846;2022-08-19T13:57:06;17.92;;;12.52;;
20639;SDS011;10479;53.524;9.846;2022-08-19T13:59:31;19.27;;;12.38;;
20639;SDS011;10479;53.524;9.846;2022-08-19T14:01:58;17.30;;;12.25;;
20639;SDS011;10479;53.524;9.846;2022-08-19T14:04:24;15.68;;;11.77;;
20639;SDS011;10479;53.524;9.846;2022-08-19T14:06:50;15.70;;;11.00;;
20639;SDS011;10479;53.524;9.846;2022-08-19T14:09:15;17.98;;;11.73;;
20639;SDS011;10479;53.524;9.846;2022-08-19T14:11:41;16.50;;;10.80;;
20639;SDS011;10479;53.524;9.846;2022-08-19T14:14:13;15.53;;;10.67;;
20639;SDS011;10479;53.524;9.846;2022-08-19T14:16:38;16.45;;;11.45;;
20639;SDS011;10479;53.524;9.846;2022-08-19T14:19:04;17.45;;;11.82;;
20639;SDS011;10479;53.524;9.846;2022-08-19T14:21:29;15.65;;;11.35;;
20639;SDS011;10479;53.524;9.846;2022-08-19T14:23:55;15.65;;;10.52;;
20639;SDS011;10479;53.524;9.846;2022-08-19T14:26:21;13.00;;;9.40;;
20639;SDS011;10479;53.524;9.846;2022-08-19T14:28:47;13.00;;;9.55;;
20639;SDS011;10479;53.524;9.846;2022-08-19T14:31:13;13.00;;;9.25;;
20639;SDS011;10479;53.524;9.846;2022-08-19T14:33:43;12.95;;;8.57;;
20639;SDS011;10479;53.524;9.846;2022-08-19T14:36:09;15.93;;;8.50;;
20639;SDS011;10479;53.524;9.846;2022-08-19T14:38:37;10.63;;;8.13;;
20639;SDS011;10479;53.524;9.846;2022-08-19T14:41:07;13.07;;;8.52;;
20639;SDS011;10479;53.524;9.846;2022-08-19T14:43:41;13.27;;;8.82;;
20639;SDS011;10479;53.524;9.846;2022-08-19T14:46:10;13.57;;;8.63;;
20639;SDS011;10479;53.524;9.846;2022-08-19T14:48:38;11.88;;;7.60;;
20639;SDS011;10479;53.524;9.846;2022-08-19T14:51:05;14.52;;;9.02;;
20639;SDS011;10479;53.524;9.846;2022-08-19T14:53:31;10.75;;;8.30;;
20639;SDS011;10479;53.524;9.846;2022-08-19T14:55:58;14.73;;;9.27;;
20639;SDS011;10479;53.524;9.846;2022-08-19T14:58:24;11.48;;;8.30;;
20639;SDS011;10479;53.524;9.846;2022-08-19T15:00:52;10.82;;;7.18;;
20639;SDS011;10479;53.524;9.846;2022-08-19T15:03:23;10.25;;;7.30;;